Time;durP1;ratioP1;P1;durP2;ratioP2;P2;SDS_P1;SDS_P2;PMS_P1;PMS_P2;Temp;Humidity;BMP_temperature;BMP_pressure;BME280_temperature;BME280_humidity;BME280_pressure;Samples;Min_cycle;Max_cycle;Signal;HPM_P1;HPM_P2
2022/10/03 06:29:24;;;;;;;13.13;7.75;;;13.00;99.90;;;;;;4945881;28;20428;-83
2022/10/03 06:32:15;;;;;;;16.27;9.43;;;13.10;99.90;;;;;;4945303;29;20054;-82
2022/10/03 06:34:49;;;;;;;10.15;7.63;;;13.10;99.90;;;;;;4943177;29;20039;-83
2022/10/03 06:37:49;;;;;;;12.73;8.68;;;13.10;99.90;;;;;;4947096;29;20213;-83
2022/10/03 06:40:31;;;;;;;13.13;8.60;;;13.20;99.90;;;;;;4945844;29;20051;-82
2022/10/03 06:43:13;;;;;;;12.13;8.65;;;13.20;99.90;;;;;;4949711;29;20051;-84
2022/10/03 06:46:01;;;;;;;11.52;8.07;;;13.20;99.90;;;;;;4941954;29;20091;-82
2022/10/03 06:48:49;;;;;;;12.27;9.00;;;13.10;99.90;;;;;;4944531;29;20416;-84
2022/10/03 06:51:25;;;;;;;15.57;9.02;;;13.10;99.90;;;;;;4942993;28;20087;-84
2022/10/03 06:54:35;;;;;;;13.40;7.70;;;13.10;99.90;;;;;;4947797;29;20536;-83
2022/10/03 06:57:15;;;;;;;15.93;8.52;;;13.10;99.90;;;;;;4943022;29;20047;-83
2022/10/03 06:59:48;;;;;;;;;;;13.10;99.90;;;;;;4950256;29;20051;-82
2022/10/03 07:02:33;;;;;;;15.35;8.57;;;13.10;99.90;;;;;;4949089;29;20295;-84
2022/10/03 07:05:23;;;;;;;12.25;7.93;;;13.10;99.90;;;;;;4943890;29;20058;-83
2022/10/03 07:08:02;;;;;;;13.57;8.60;;;13.00;99.90;;;;;;4948298;29;20056;-84
2022/10/03 07:10:56;;;;;;;12.90;8.82;;;13.10;99.90;;;;;;4944026;29;20075;-84
2022/10/03 07:13:38;;;;;;;12.15;8.63;;;13.00;99.90;;;;;;4950039;29;20142;-83
2022/10/03 07:16:52;;;;;;;12.02;8.48;;;13.00;99.90;;;;;;4941762;29;20078;-83
2022/10/03 07:19:57;;;;;;;10.00;7.72;;;13.00;99.90;;;;;;4897726;29;20048;-82
2022/10/03 07:22:52;;;;;;;14.18;9.18;;;13.00;99.90;;;;;;4952688;29;20425;-84
2022/10/03 07:25:43;;;;;;;13.57;9.90;;;13.00;99.90;;;;;;4952325;29;20051;-84
2022/10/03 07:28:37;;;;;;;12.43;9.23;;;13.00;99.90;;;;;;4945671;28;20065;-82
2022/10/03 07:31:44;;;;;;;9.98;7.57;;;13.00;99.90;;;;;;4955522;29;20058;-82
2022/10/03 07:34:29;;;;;;;13.10;8.10;;;13.00;99.90;;;;;;4946134;29;20102;-84
2022/10/03 07:40:21;;;;;;;13.85;8.57;;;13.00;99.90;;;;;;4948864;29;20497;-82
2022/10/03 07:43:23;;;;;;;12.93;8.10;;;13.00;99.90;;;;;;4951864;29;20385;-84
2022/10/03 07:46:24;;;;;;;13.10;7.60;;;12.90;99.90;;;;;;4950821;29;20130;-83
2022/10/03 07:49:06;;;;;;;14.30;7.05;;;12.90;99.90;;;;;;4951859;29;20768;-82
2022/10/03 07:52:00;;;;;;;8.63;6.95;;;12.90;99.90;;;;;;4943259;29;20415;-84
2022/10/03 07:54:46;;;;;;;10.60;7.13;;;12.90;99.90;;;;;;4950284;29;20047;-84
2022/10/03 07:57:23;;;;;;;14.40;8.27;;;12.80;99.90;;;;;;4952498;29;20523;-84
2022/10/03 08:00:12;;;;;;;13.32;8.57;;;12.90;99.90;;;;;;4948029;29;20048;-84
2022/10/03 08:03:21;;;;;;;12.73;8.57;;;12.90;99.90;;;;;;4946020;29;20043;-84
2022/10/03 08:06:15;;;;;;;13.10;9.43;;;13.00;99.90;;;;;;4955721;29;20052;-84
2022/10/03 08:08:53;;;;;;;15.85;8.95;;;13.00;99.90;;;;;;4951000;29;20615;-84
2022/10/03 08:11:45;;;;;;;16.63;10.02;;;13.10;99.90;;;;;;4944129;29;20583;-85
2022/10/03 08:14:44;;;;;;;14.25;8.57;;;13.10;99.90;;;;;;4949927;29;20048;-84
2022/10/03 08:17:34;;;;;;;12.32;9.32;;;13.20;99.90;;;;;;4949204;29;20048;-85
2022/10/03 08:20:12;;;;;;;12.65;8.85;;;13.30;99.90;;;;;;4944940;28;20130;-85
2022/10/03 08:22:58;;;;;;;14.90;8.60;;;13.40;99.90;;;;;;4955537;28;20053;-84
2022/10/03 08:25:43;;;;;;;12.20;8.45;;;13.50;99.90;;;;;;4950406;29;20706;-84
2022/10/03 08:28:28;;;;;;;13.48;8.45;;;13.50;99.90;;;;;;4954725;29;20420;-84
2022/10/03 08:31:14;;;;;;;10.85;8.10;;;13.50;99.90;;;;;;4948111;29;20072;-85
2022/10/03 08:33:50;;;;;;;13.00;9.00;;;13.60;99.90;;;;;;4948815;29;20047;-84
2022/10/03 08:37:01;;;;;;;13.00;9.20;;;13.60;99.90;;;;;;4959400;29;20079;-85
2022/10/03 08:40:06;;;;;;;13.73;9.80;;;13.70;99.90;;;;;;4951019;29;20052;-84
2022/10/03 08:42:45;;;;;;;15.55;9.30;;;13.70;99.90;;;;;;4965337;29;20551;-82
2022/10/03 08:45:30;;;;;;;12.23;8.70;;;13.70;99.90;;;;;;4965308;29;20074;-85
2022/10/03 08:48:18;;;;;;;14.27;9.60;;;13.70;99.90;;;;;;4955471;29;20065;-83
2022/10/03 08:50:57;;;;;;;18.17;10.45;;;13.70;99.90;;;;;;4956853;29;20044;-85
2022/10/03 08:54:00;;;;;;;15.85;10.98;;;13.70;99.90;;;;;;4957421;28;20043;-82
2022/10/03 08:56:55;;;;;;;16.35;11.05;;;13.80;99.90;;;;;;4956784;28;20062;-83
2022/10/03 08:59:31;;;;;;;14.90;10.68;;;13.90;99.90;;;;;;4955821;29;20069;-82
2022/10/03 09:02:27;;;;;;;15.25;9.57;;;13.90;99.90;;;;;;4946814;29;20067;-83
2022/10/03 09:05:10;;;;;;;14.18;9.60;;;13.90;99.90;;;;;;4951545;29;20053;-83
2022/10/03 09:08:14;;;;;;;13.35;9.35;;;14.00;99.90;;;;;;4948866;29;20544;-82
2022/10/03 09:11:15;;;;;;;22.55;11.45;;;14.00;99.90;;;;;;4938868;29;20051;-83
2022/10/03 09:13:54;;;;;;;16.05;10.68;;;14.00;99.90;;;;;;4946320;29;20150;-83
2022/10/03 09:16:45;;;;;;;18.08;11.68;;;14.10;99.90;;;;;;4947956;29;20135;-82
2022/10/03 09:19:37;;;;;;;17.02;11.77;;;13.90;99.90;;;;;;4955852;29;20047;-83
2022/10/03 09:22:10;;;;;;;21.58;12.15;;;14.00;99.90;;;;;;4948213;29;20059;-83
2022/10/03 09:24:55;;;;;;;14.95;10.60;;;14.00;99.90;;;;;;4948643;29;20056;-83
2022/10/03 09:27:35;;;;;;;16.35;10.98;;;14.10;99.90;;;;;;4957067;29;20055;-82
2022/10/03 09:30:19;;;;;;;13.98;10.40;;;14.10;99.90;;;;;;4947253;28;20052;-84
2022/10/03 09:32:58;;;;;;;14.45;9.80;;;14.10;99.90;;;;;;4967423;28;20046;-83
2022/10/03 09:35:44;;;;;;;14.50;9.32;;;14.20;99.90;;;;;;4951712;29;20127;-83
2022/10/03 09:38:42;;;;;;;13.82;8.75;;;14.20;99.90;;;;;;4952685;29;20059;-83
2022/10/03 09:41:47;;;;;;;12.48;8.05;;;14.30;99.90;;;;;;4956870;29;20093;-83
2022/10/03 09:44:17;;;;;;;14.88;8.70;;;14.30;99.90;;;;;;4929549;29;20162;-83
2022/10/03 09:50:18;;;;;;;9.82;6.57;;;14.40;99.90;;;;;;4957078;28;20051;-83
2022/10/03 09:53:19;;;;;;;15.20;8.88;;;14.60;99.90;;;;;;4952961;28;20055;-83
2022/10/03 09:56:04;;;;;;;12.30;8.13;;;14.50;99.90;;;;;;4944417;29;20134;-85
2022/10/03 09:59:04;;;;;;;11.15;8.40;;;14.50;99.90;;;;;;4950673;29;20111;-83
2022/10/03 10:01:46;;;;;;;11.05;6.85;;;14.50;99.90;;;;;;4954764;28;20079;-83
2022/10/03 10:04:31;;;;;;;8.38;7.07;;;14.50;99.90;;;;;;4952293;29;20052;-83
2022/10/03 10:07:58;;;;;;;8.30;7.10;;;14.60;99.90;;;;;;4947609;29;20051;-83
2022/10/03 10:11:20;;;;;;;10.20;7.50;;;14.60;99.90;;;;;;4948788;29;20079;-84
2022/10/03 10:14:12;;;;;;;9.05;7.13;;;14.70;99.90;;;;;;4954202;29;20051;-83
2022/10/03 10:16:50;;;;;;;11.63;6.82;;;14.80;99.90;;;;;;4949213;29;20058;-82
2022/10/03 10:19:52;;;;;;;9.55;6.65;;;14.70;99.90;;;;;;4951364;29;20496;-82
2022/10/03 10:22:21;;;;;;;6.78;5.93;;;14.70;99.90;;;;;;4946989;29;20091;-82
2022/10/03 10:25:00;;;;;;;9.17;5.90;;;14.60;99.90;;;;;;4954587;28;20055;-83
2022/10/03 10:27:53;;;;;;;9.63;6.25;;;14.50;99.90;;;;;;4954797;29;20295;-82
2022/10/03 10:30:55;;;;;;;5.68;4.82;;;14.40;99.90;;;;;;4957763;29;20051;-83
2022/10/03 10:33:49;;;;;;;6.35;4.57;;;14.30;99.90;;;;;;4949732;29;20561;-83
2022/10/03 10:36:31;;;;;;;5.10;4.35;;;14.30;99.90;;;;;;4947666;29;20103;-82
2022/10/03 10:39:29;;;;;;;5.45;4.38;;;14.40;99.90;;;;;;4945389;29;20043;-82
2022/10/03 10:42:27;;;;;;;6.05;4.40;;;14.50;99.90;;;;;;4960903;28;20107;-83
2022/10/03 10:45:15;;;;;;;4.95;3.40;;;14.60;99.90;;;;;;4956865;28;20051;-83
2022/10/03 10:48:07;;;;;;;4.03;3.35;;;14.60;99.90;;;;;;4950443;29;20055;-84
2022/10/03 10:50:40;;;;;;;4.03;3.58;;;14.60;99.90;;;;;;4962690;28;20047;-83
2022/10/03 10:53:45;;;;;;;5.97;3.85;;;14.60;99.90;;;;;;4949688;29;20115;-84
2022/10/03 10:56:49;;;;;;;5.57;4.38;;;14.50;99.90;;;;;;4951603;29;20061;-83
2022/10/03 10:59:56;;;;;;;5.03;3.70;;;14.50;99.90;;;;;;4956708;29;20098;-83
2022/10/03 11:02:57;;;;;;;4.15;3.33;;;14.50;99.90;;;;;;4952484;29;20054;-82
2022/10/03 11:06:01;;;;;;;4.75;2.97;;;14.50;99.90;;;;;;4952073;28;20047;-82
2022/10/03 11:09:08;;;;;;;4.60;3.30;;;14.60;99.90;;;;;;4955063;28;20076;-83
2022/10/03 11:11:44;;;;;;;4.15;3.13;;;14.80;99.90;;;;;;4950252;28;20048;-83
2022/10/03 11:14:27;;;;;;;3.63;3.20;;;14.80;99.90;;;;;;4948674;28;20453;-83
2022/10/03 11:17:14;;;;;;;7.05;3.53;;;14.80;99.90;;;;;;4950897;28;20074;-86
2022/10/03 11:20:31;;;;;;;4.57;3.63;;;14.90;99.90;;;;;;4949659;29;20048;-84
2022/10/03 11:23:17;;;;;;;4.57;2.97;;;15.10;99.90;;;;;;4947861;29;20050;-84
2022/10/03 11:25:55;;;;;;;4.07;3.00;;;15.10;99.90;;;;;;4948868;29;20046;-82
2022/10/03 11:28:44;;;;;;;3.33;2.90;;;15.30;99.90;;;;;;4949313;29;20058;-83
2022/10/03 11:31:44;;;;;;;4.25;2.97;;;15.30;99.90;;;;;;4941331;29;20067;-84
2022/10/03 11:34:48;;;;;;;3.45;3.00;;;15.40;99.90;;;;;;4912569;29;20047;-85
2022/10/03 11:37:43;;;;;;;6.00;3.28;;;15.40;99.90;;;;;;4951608;29;20047;-83
2022/10/03 11:40:13;;;;;;;3.50;2.45;;;15.50;99.90;;;;;;4952504;28;20058;-84
2022/10/03 11:43:02;;;;;;;3.25;2.95;;;15.50;99.90;;;;;;4950941;28;20051;-84
2022/10/03 11:45:38;;;;;;;4.93;3.53;;;15.50;99.90;;;;;;4954274;29;20139;-83
2022/10/03 11:48:26;;;;;;;4.60;2.90;;;15.40;99.90;;;;;;4939439;29;20051;-83
2022/10/03 11:50:56;;;;;;;4.07;3.05;;;15.40;99.90;;;;;;4940508;29;20055;-83
2022/10/03 11:53:46;;;;;;;5.22;2.72;;;15.50;99.90;;;;;;4951249;29;20047;-82
2022/10/03 11:56:31;;;;;;;5.13;2.90;;;15.50;99.90;;;;;;4944815;29;20058;-82
2022/10/03 11:59:28;;;;;;;3.55;3.00;;;15.40;99.90;;;;;;4948199;29;20492;-83
2022/10/03 12:02:14;;;;;;;3.22;2.60;;;15.50;99.90;;;;;;4953789;29;20058;-82
2022/10/03 12:04:48;;;;;;;2.92;2.30;;;15.60;99.90;;;;;;4949024;29;20562;-82
2022/10/03 12:10:11;;;;;;;3.88;2.28;;;15.80;99.90;;;;;;4953017;29;20091;-83
2022/10/03 12:12:49;;;;;;;3.45;1.90;;;15.90;99.90;;;;;;4941826;29;20058;-83
2022/10/03 12:15:47;;;;;;;2.22;2.03;;;15.90;99.90;;;;;;4953942;29;20066;-84
2022/10/03 12:18:33;;;;;;;2.95;1.83;;;16.00;99.90;;;;;;4944329;29;20053;-83
2022/10/03 12:21:13;;;;;;;2.63;2.08;;;16.20;99.90;;;;;;4956677;29;20051;-83
2022/10/03 12:24:19;;;;;;;2.22;1.60;;;16.30;99.90;;;;;;4957412;29;20079;-80
2022/10/03 12:27:09;;;;;;;1.65;1.55;;;16.30;99.90;;;;;;4947148;29;20055;-84
2022/10/03 12:29:44;;;;;;;2.22;1.67;;;16.30;99.90;;;;;;4947334;29;20142;-81
2022/10/03 12:32:27;;;;;;;4.75;1.63;;;16.40;99.90;;;;;;4948523;29;20508;-82
2022/10/03 12:35:03;;;;;;;2.88;1.25;;;16.60;99.90;;;;;;4948849;29;20084;-83
2022/10/03 12:37:50;;;;;;;3.03;1.10;;;16.60;99.90;;;;;;4956666;29;20062;-82
2022/10/03 12:40:31;;;;;;;2.78;1.20;;;16.60;99.90;;;;;;4944174;29;20062;-83
2022/10/03 12:43:13;;;;;;;1.08;0.90;;;16.60;99.90;;;;;;4953241;29;20055;-82
2022/10/03 12:45:49;;;;;;;1.20;1.05;;;16.60;99.90;;;;;;4953181;29;20062;-82
2022/10/03 12:48:41;;;;;;;1.95;0.82;;;16.60;99.90;;;;;;4950592;28;20083;-82
2022/10/03 12:51:19;;;;;;;1.58;1.05;;;16.60;99.90;;;;;;4947067;29;20055;-81
2022/10/03 12:54:07;;;;;;;4.68;1.02;;;16.60;99.90;;;;;;4943148;28;20050;-83
2022/10/03 12:56:57;;;;;;;1.52;1.00;;;16.50;99.90;;;;;;4953730;29;20051;-82
2022/10/03 12:59:41;;;;;;;2.25;1.20;;;16.40;99.90;;;;;;4945846;29;20051;-82
2022/10/03 13:02:29;;;;;;;5.85;1.13;;;16.30;99.90;;;;;;4956436;29;20062;-83
2022/10/03 13:05:21;;;;;;;2.75;1.20;;;16.20;99.90;;;;;;4962215;23;20123;-80
2022/10/03 13:07:51;;;;;;;2.25;1.10;;;16.20;99.90;;;;;;4944771;29;20048;-82
2022/10/03 13:10:37;;;;;;;2.22;1.60;;;16.10;99.90;;;;;;4939993;29;20505;-81
2022/10/03 13:13:25;;;;;;;2.38;1.20;;;16.10;99.90;;;;;;4934685;29;20095;-81
2022/10/03 13:16:25;;;;;;;1.50;1.02;;;16.10;99.90;;;;;;4941829;29;20044;-81
2022/10/03 13:19:04;;;;;;;1.55;1.42;;;16.00;99.90;;;;;;4941818;29;20052;-81
2022/10/03 13:21:33;;;;;;;3.13;1.27;;;16.00;99.90;;;;;;4933662;29;20055;-81
2022/10/03 13:24:21;;;;;;;3.53;1.20;;;16.00;99.90;;;;;;4930438;29;20127;-80
2022/10/03 13:27:09;;;;;;;3.47;1.10;;;16.00;99.90;;;;;;4940544;29;20059;-82
2022/10/03 13:29:47;;;;;;;3.75;1.30;;;16.00;99.90;;;;;;4940277;29;20688;-79
2022/10/03 13:32:47;;;;;;;2.47;1.40;;;16.10;99.90;;;;;;4933839;29;20104;-80
2022/10/03 13:38:33;;;;;;;1.85;1.20;;;16.10;99.90;;;;;;4924590;29;20055;-82
2022/10/03 13:41:18;;;;;;;1.67;1.30;;;16.10;99.90;;;;;;4925080;29;20095;-82
2022/10/03 13:43:55;;;;;;;2.72;1.40;;;16.10;99.90;;;;;;4938664;29;20058;-81
2022/10/03 13:46:32;;;;;;;3.95;1.40;;;16.20;99.90;;;;;;4928999;29;20112;-82
2022/10/03 13:49:09;;;;;;;4.25;1.45;;;16.30;99.90;;;;;;4935655;29;20059;-80
2022/10/03 13:51:52;;;;;;;5.30;1.25;;;16.50;99.90;;;;;;4938455;29;20495;-80
2022/10/03 13:55:01;;;;;;;5.43;1.67;;;16.50;99.90;;;;;;4933241;29;20044;-78
2022/10/03 13:57:51;;;;;;;4.00;1.30;;;16.60;99.90;;;;;;4934404;29;20051;-79
2022/10/03 14:00:21;;;;;;;1.10;1.00;;;16.60;99.90;;;;;;4923672;29;20271;-82
2022/10/03 14:03:06;;;;;;;;;;;16.60;99.90;;;;;;4932840;29;20091;-82
2022/10/03 14:05:42;;;;;;;2.28;1.38;;;16.60;99.90;;;;;;4937371;29;19923;-81
2022/10/03 14:08:22;;;;;;;3.65;1.30;;;16.60;99.90;;;;;;4938412;29;20056;-82
2022/10/03 14:11:10;;;;;;;4.15;1.50;;;16.60;99.90;;;;;;4930432;29;20072;-82
2022/10/03 14:13:53;;;;;;;3.60;1.52;;;16.60;99.90;;;;;;4938229;29;20085;-79
2022/10/03 14:16:27;;;;;;;1.83;1.35;;;16.60;99.90;;;;;;4932169;29;20052;-80
2022/10/03 14:19:05;;;;;;;4.03;1.88;;;16.60;99.90;;;;;;4942151;29;20048;-80
2022/10/03 14:21:45;;;;;;;3.05;1.50;;;16.60;99.90;;;;;;4936240;29;20421;-80
2022/10/03 14:24:25;;;;;;;;;;;16.60;99.90;;;;;;4928542;29;20135;-80
2022/10/03 14:27:23;;;;;;;3.38;1.60;;;16.60;99.90;;;;;;4925451;29;19969;-81
2022/10/03 14:30:08;;;;;;;2.58;1.70;;;16.60;99.90;;;;;;4924458;29;20465;-80
2022/10/03 14:32:43;;;;;;;3.38;1.77;;;16.60;99.90;;;;;;4935768;29;20088;-78
2022/10/03 14:35:18;;;;;;;3.20;1.42;;;16.60;99.90;;;;;;4930415;29;20103;-80
2022/10/03 14:38:07;;;;;;;1.92;1.52;;;16.60;99.90;;;;;;4931922;29;20501;-79
2022/10/03 14:40:49;;;;;;;2.65;1.73;;;16.70;99.90;;;;;;4925193;29;20078;-81
2022/10/03 14:43:41;;;;;;;3.05;1.85;;;16.70;99.90;;;;;;4931640;29;20395;-78
2022/10/03 14:46:09;;;;;;;2.67;2.00;;;16.70;99.90;;;;;;4925580;29;20134;-79
2022/10/03 14:48:50;;;;;;;5.63;1.85;;;16.70;99.90;;;;;;4930132;29;20103;-78
2022/10/03 14:51:25;;;;;;;2.13;1.42;;;16.60;99.90;;;;;;4926940;29;20060;-77
2022/10/03 14:54:01;;;;;;;4.53;2.00;;;16.50;99.90;;;;;;4926916;29;20132;-80
2022/10/03 14:56:33;;;;;;;3.55;2.03;;;16.50;99.90;;;;;;4930935;29;20044;-80
2022/10/03 14:59:10;;;;;;;4.65;2.35;;;16.50;99.90;;;;;;4920749;29;20454;-80
2022/10/03 15:01:48;;;;;;;4.35;2.30;;;16.50;99.90;;;;;;4919049;29;20055;-80
2022/10/03 15:04:29;;;;;;;4.40;2.42;;;16.50;99.90;;;;;;4925539;29;20127;-80
2022/10/03 15:06:59;;;;;;;3.70;2.50;;;16.50;99.90;;;;;;4924581;29;20051;-80
2022/10/03 15:09:41;;;;;;;3.58;2.55;;;16.50;99.90;;;;;;4921302;29;20056;-80
2022/10/03 15:12:22;;;;;;;4.25;2.60;;;16.50;99.90;;;;;;4923329;29;20086;-81
2022/10/03 15:15:14;;;;;;;7.88;2.92;;;16.50;99.90;;;;;;4929683;29;20056;-80
2022/10/03 15:17:48;;;;;;;5.70;2.65;;;16.50;99.90;;;;;;4937721;29;20052;-81
2022/10/03 15:20:28;;;;;;;6.00;2.58;;;16.60;99.90;;;;;;4929280;29;20048;-81
2022/10/03 15:22:59;;;;;;;4.28;2.25;;;16.50;99.90;;;;;;4933147;29;20477;-81
2022/10/03 15:25:37;;;;;;;6.88;2.42;;;16.60;99.90;;;;;;4944641;29;20111;-81
2022/10/03 15:28:18;;;;;;;3.50;2.70;;;16.60;99.90;;;;;;4933419;29;20051;-82
2022/10/03 15:30:46;;;;;;;5.00;2.80;;;16.60;99.90;;;;;;4939613;29;20142;-81
2022/10/03 15:33:18;;;;;;;4.47;2.45;;;16.60;99.90;;;;;;4931965;29;20163;-79
2022/10/03 15:35:49;;;;;;;4.35;2.90;;;16.60;99.90;;;;;;4939802;29;20107;-82
2022/10/03 15:38:23;;;;;;;6.38;2.80;;;16.60;99.90;;;;;;4924508;29;20176;-80
2022/10/03 15:41:05;;;;;;;5.72;2.65;;;16.60;99.90;;;;;;4938293;29;20051;-82
2022/10/03 15:43:51;;;;;;;8.05;2.95;;;16.60;99.90;;;;;;4931737;29;20090;-81
2022/10/03 15:46:33;;;;;;;5.18;3.00;;;16.60;99.90;;;;;;4942163;29;20093;-81
2022/10/03 15:49:04;;;;;;;5.47;3.22;;;16.50;99.90;;;;;;4934585;29;20058;-81
2022/10/03 15:51:35;;;;;;;3.80;3.03;;;16.40;99.90;;;;;;4935209;29;20054;-81
2022/10/03 15:54:04;;;;;;;;;;;16.40;99.90;;;;;;4937670;29;20048;-81
2022/10/03 15:56:38;;;;;;;4.70;2.80;;;16.40;99.90;;;;;;4943768;29;20013;-82
2022/10/03 15:59:08;;;;;;;6.80;3.15;;;16.40;99.90;;;;;;4942659;29;20445;-82
2022/10/03 16:01:46;;;;;;;3.80;2.70;;;16.40;99.90;;;;;;4935886;29;20062;-82
2022/10/03 16:04:19;;;;;;;4.03;2.72;;;16.30;99.90;;;;;;4935511;29;20059;-81
2022/10/03 16:07:01;;;;;;;3.38;3.08;;;16.30;99.90;;;;;;4937594;29;20139;-80
2022/10/03 16:09:52;;;;;;;4.63;2.80;;;16.20;99.90;;;;;;4941569;29;20050;-81
2022/10/03 16:12:19;;;;;;;3.67;2.85;;;16.20;99.90;;;;;;4942712;29;20047;-80
2022/10/03 16:14:53;;;;;;;6.05;3.38;;;16.20;99.90;;;;;;4947004;29;20050;-82
2022/10/03 16:17:48;;;;;;;9.02;3.70;;;16.10;99.90;;;;;;4941595;29;20052;-80
2022/10/03 16:20:23;;;;;;;4.80;3.20;;;16.10;99.90;;;;;;4938814;29;20044;-81
2022/10/03 16:22:56;;;;;;;4.75;3.33;;;16.10;99.90;;;;;;4942744;29;20062;-81
2022/10/03 16:25:47;;;;;;;6.38;3.40;;;16.00;99.90;;;;;;4942593;29;20052;-81
2022/10/03 16:28:22;;;;;;;4.03;3.40;;;16.00;99.90;;;;;;4935784;29;20052;-81
2022/10/03 16:31:24;;;;;;;8.75;4.43;;;16.00;99.90;;;;;;4941180;29;20107;-81
2022/10/03 16:33:52;;;;;;;6.45;4.22;;;16.00;99.90;;;;;;4942421;29;20132;-81
2022/10/03 16:36:24;;;;;;;8.40;4.43;;;15.90;99.90;;;;;;4936034;29;20051;-78
2022/10/03 16:39:14;;;;;;;7.82;4.03;;;16.00;99.90;;;;;;4943473;29;20067;-81
2022/10/03 16:41:42;;;;;;;6.95;4.15;;;15.90;99.90;;;;;;4936639;29;20071;-82
2022/10/03 16:44:38;;;;;;;8.10;4.38;;;15.80;99.90;;;;;;4933430;29;20048;-81
2022/10/03 16:47:07;;;;;;;9.70;4.78;;;15.80;99.90;;;;;;4933582;29;20111;-81
2022/10/03 16:52:34;;;;;;;8.57;4.22;;;15.80;99.90;;;;;;4938359;29;20071;-83
2022/10/03 16:55:16;;;;;;;6.90;4.13;;;15.80;99.90;;;;;;4937258;29;20048;-82
2022/10/03 16:58:09;;;;;;;9.30;4.40;;;15.70;99.90;;;;;;4943508;29;20111;-81
2022/10/03 17:00:58;;;;;;;6.90;4.20;;;15.70;99.90;;;;;;4926808;29;20091;-80
2022/10/03 17:03:51;;;;;;;10.60;5.07;;;15.60;99.90;;;;;;4936597;29;20055;-80
2022/10/03 17:06:32;;;;;;;9.73;4.97;;;15.60;99.90;;;;;;4945045;29;20075;-80
2022/10/03 17:09:17;;;;;;;8.05;5.57;;;15.50;99.90;;;;;;4945864;29;20077;-81
2022/10/03 17:11:50;;;;;;;8.23;5.72;;;15.50;99.90;;;;;;4936370;29;20075;-82
2022/10/03 17:14:19;;;;;;;12.40;6.00;;;15.60;99.90;;;;;;4936680;29;20082;-82
2022/10/03 17:16:49;;;;;;;9.23;5.40;;;15.60;99.90;;;;;;4931597;29;20050;-81
2022/10/03 17:19:29;;;;;;;7.00;5.00;;;15.50;99.90;;;;;;4944201;29;20055;-82
2022/10/03 17:21:58;;;;;;;;;;;15.60;99.90;;;;;;4944819;29;20064;-80
2022/10/03 17:24:46;;;;;;;7.30;5.43;;;15.60;99.90;;;;;;4937705;29;19922;-81
2022/10/03 17:27:35;;;;;;;6.82;4.93;;;15.50;99.90;;;;;;4932784;29;20502;-81
2022/10/03 17:30:27;;;;;;;13.13;5.60;;;15.50;99.90;;;;;;4944004;29;20051;-82
2022/10/03 17:33:04;;;;;;;8.88;5.55;;;15.50;99.90;;;;;;4935266;29;20082;-82
2022/10/03 17:36:04;;;;;;;10.63;5.60;;;15.60;99.90;;;;;;4948733;29;20055;-82
2022/10/03 17:38:52;;;;;;;6.95;5.38;;;15.60;99.90;;;;;;4933812;29;20048;-81
2022/10/03 17:41:47;;;;;;;11.02;5.38;;;15.50;99.90;;;;;;4929841;29;20052;-81
2022/10/03 17:44:23;;;;;;;11.80;6.28;;;15.50;99.90;;;;;;4940262;29;20383;-80
2022/10/03 17:47:11;;;;;;;10.48;6.75;;;15.50;99.90;;;;;;4945158;29;20079;-80
2022/10/03 17:50:03;;;;;;;9.18;5.45;;;15.50;99.90;;;;;;4936987;29;20083;-79
2022/10/03 17:52:31;;;;;;;8.73;5.55;;;15.40;99.90;;;;;;4932200;29;20064;-81
2022/10/03 17:55:03;;;;;;;11.32;5.57;;;15.40;99.90;;;;;;4938096;29;20432;-81
2022/10/03 17:57:44;;;;;;;8.38;5.53;;;15.40;99.90;;;;;;4933599;29;20132;-80
2022/10/03 18:00:21;;;;;;;8.40;5.97;;;15.30;99.90;;;;;;4935723;29;20055;-81
2022/10/03 18:03:04;;;;;;;9.18;6.20;;;15.20;99.90;;;;;;4933426;29;20062;-80
2022/10/03 18:05:46;;;;;;;11.60;6.18;;;15.10;99.90;;;;;;4936956;29;20051;-80
2022/10/03 18:08:25;;;;;;;9.07;5.88;;;15.00;99.90;;;;;;4932498;29;20052;-81
2022/10/03 18:10:55;;;;;;;13.63;5.88;;;14.90;99.90;;;;;;4940146;29;20060;-80
2022/10/03 18:13:36;;;;;;;12.55;6.82;;;14.90;99.90;;;;;;4931565;29;20544;-80
2022/10/03 18:16:13;;;;;;;13.73;7.53;;;14.80;99.90;;;;;;4940017;29;20086;-80
2022/10/03 18:18:47;;;;;;;11.30;6.43;;;14.80;99.90;;;;;;4945390;29;20119;-79
2022/10/03 18:21:34;;;;;;;15.25;7.43;;;14.70;99.90;;;;;;4943331;29;20115;-81
2022/10/03 18:24:19;;;;;;;13.07;6.82;;;14.60;99.90;;;;;;4942105;29;20146;-80
2022/10/03 18:27:19;;;;;;;10.45;6.95;;;14.50;99.90;;;;;;4939471;29;20060;-81
2022/10/03 18:30:06;;;;;;;15.60;8.93;;;14.40;99.90;;;;;;4930249;29;20067;-81
2022/10/03 18:32:38;;;;;;;9.43;7.03;;;14.30;99.90;;;;;;4936481;29;20062;-82
2022/10/03 18:35:25;;;;;;;13.13;7.40;;;14.10;99.90;;;;;;4942100;29;20060;-83
2022/10/03 18:38:16;;;;;;;14.25;8.27;;;14.10;99.90;;;;;;4943543;29;20071;-83
2022/10/03 18:40:56;;;;;;;13.63;7.78;;;14.00;99.90;;;;;;4934840;29;20115;-83
2022/10/03 18:43:36;;;;;;;18.43;8.30;;;14.00;99.90;;;;;;4945947;29;20056;-82
2022/10/03 18:46:13;;;;;;;16.02;8.27;;;13.80;99.90;;;;;;4941653;29;20367;-83
2022/10/03 18:49:05;;;;;;;13.02;8.30;;;13.90;99.90;;;;;;4935409;29;20112;-80
2022/10/03 18:51:57;;;;;;;13.73;8.55;;;13.80;99.90;;;;;;4945080;29;20059;-83
2022/10/03 18:54:29;;;;;;;14.52;8.95;;;13.80;99.90;;;;;;4935755;29;20103;-82
2022/10/03 18:57:04;;;;;;;13.32;8.35;;;13.80;99.90;;;;;;4945593;29;20317;-83
2022/10/03 19:00:02;;;;;;;13.02;8.82;;;13.70;99.90;;;;;;4937650;29;20052;-82
2022/10/03 19:03:02;;;;;;;13.27;8.60;;;13.70;99.90;;;;;;4936273;29;20058;-82
2022/10/03 19:05:46;;;;;;;15.23;9.48;;;13.60;99.90;;;;;;4947569;29;20054;-83
2022/10/03 19:08:22;;;;;;;15.65;8.70;;;13.60;99.90;;;;;;4930486;29;20055;-83
2022/10/03 19:11:05;;;;;;;19.48;10.13;;;13.50;99.90;;;;;;4934689;29;20312;-82
2022/10/03 19:13:39;;;;;;;17.70;9.75;;;13.50;99.90;;;;;;4930619;29;20052;-82
2022/10/03 19:16:26;;;;;;;13.95;9.13;;;13.40;99.90;;;;;;4930315;29;20108;-83
2022/10/03 19:19:05;;;;;;;15.10;9.07;;;13.40;99.90;;;;;;4944429;29;20084;-83
2022/10/03 19:21:38;;;;;;;11.68;8.45;;;13.30;99.90;;;;;;4944906;29;20094;-82
2022/10/03 19:24:26;;;;;;;11.70;8.57;;;13.30;99.90;;;;;;4936713;29;20083;-82
2022/10/03 19:27:17;;;;;;;15.60;9.32;;;13.30;99.90;;;;;;4944528;29;20353;-81
2022/10/03 19:29:55;;;;;;;12.75;7.90;;;13.20;99.90;;;;;;4939299;29;20111;-81
2022/10/03 19:32:33;;;;;;;14.88;9.60;;;13.10;99.90;;;;;;4946541;29;20058;-81
2022/10/03 19:35:03;;;;;;;15.80;9.45;;;13.10;99.90;;;;;;4937251;29;20142;-80
2022/10/03 19:37:41;;;;;;;17.08;8.50;;;13.10;99.90;;;;;;4935442;29;20150;-82
2022/10/03 19:40:41;;;;;;;18.63;10.32;;;13.00;99.90;;;;;;4938148;29;20052;-81
2022/10/03 19:43:29;;;;;;;14.25;10.00;;;13.00;99.90;;;;;;4934660;29;20115;-81
2022/10/03 19:46:11;;;;;;;14.35;9.23;;;13.00;99.90;;;;;;4936478;29;20067;-80
2022/10/03 19:48:46;;;;;;;17.50;10.13;;;12.90;99.90;;;;;;4944355;29;20111;-80
2022/10/03 19:51:16;;;;;;;23.17;9.90;;;12.90;99.90;;;;;;4939736;29;20052;-83
2022/10/03 19:53:52;;;;;;;11.55;9.15;;;12.90;99.90;;;;;;4931199;29;20044;-82
2022/10/03 19:56:21;;;;;;;19.63;9.65;;;12.90;99.90;;;;;;4942214;29;20059;-82
2022/10/03 19:59:15;;;;;;;16.95;9.95;;;12.80;99.90;;;;;;4942771;29;20051;-82
2022/10/03 20:01:43;;;;;;;20.92;9.60;;;12.80;99.90;;;;;;4937957;29;20052;-82
2022/10/03 20:04:12;;;;;;;14.35;8.60;;;12.80;99.90;;;;;;4942861;29;20047;-81
2022/10/03 20:06:49;;;;;;;13.32;7.93;;;12.80;99.90;;;;;;4938223;29;20425;-82
2022/10/03 20:09:21;;;;;;;12.70;8.50;;;12.70;99.90;;;;;;4947908;29;20087;-82
2022/10/03 20:11:49;;;;;;;12.05;8.65;;;12.70;99.90;;;;;;4938158;29;20062;-81
2022/10/03 20:14:26;;;;;;;15.40;8.63;;;12.70;99.90;;;;;;4932342;29;20613;-82
2022/10/03 20:17:02;;;;;;;12.07;8.73;;;12.60;99.90;;;;;;4929199;29;20087;-82
2022/10/03 20:19:39;;;;;;;15.05;8.10;;;12.60;99.90;;;;;;4936738;29;20131;-82
2022/10/03 20:22:06;;;;;;;15.93;8.35;;;12.60;99.90;;;;;;4937995;29;20044;-79
2022/10/03 20:24:37;;;;;;;11.88;8.13;;;12.60;99.90;;;;;;4937455;29;20114;-81
2022/10/03 20:27:17;;;;;;;12.70;7.85;;;12.60;99.90;;;;;;4943734;29;20048;-81
2022/10/03 20:30:05;;;;;;;16.08;8.35;;;12.50;99.90;;;;;;4930794;29;20418;-82
2022/10/03 20:32:36;;;;;;;13.98;7.22;;;12.40;99.90;;;;;;4930455;29;20058;-83
2022/10/03 20:35:03;;;;;;;13.07;7.75;;;12.40;99.90;;;;;;4944140;29;20059;-82
2022/10/03 20:37:52;;;;;;;10.48;7.22;;;12.30;99.90;;;;;;4933211;29;20051;-82
2022/10/03 20:40:43;;;;;;;9.57;6.38;;;12.30;99.90;;;;;;4947151;29;20115;-81
2022/10/03 20:43:26;;;;;;;9.85;6.20;;;12.30;99.90;;;;;;4942750;29;20102;-81
2022/10/03 20:46:05;;;;;;;9.75;6.85;;;12.30;99.90;;;;;;4937811;29;20070;-82
2022/10/03 20:48:35;;;;;;;10.93;8.38;;;12.20;99.90;;;;;;4940795;29;20052;-83
2022/10/03 20:51:02;;;;;;;;;;;12.30;99.90;;;;;;4944089;29;20047;-82
2022/10/03 20:53:30;;;;;;;10.10;6.53;;;12.20;99.90;;;;;;4944673;29;19928;-82